Time;durP1;ratioP1;P1;durP2;ratioP2;P2;SDS_P1;SDS_P2;PMS_P1;PMS_P2;Temp;Humidity;BMP_temperature;BMP_pressure;BME280_temperature;BME280_humidity;BME280_pressure;Samples;Min_cycle;Max_cycle;Signal;HPM_P1;HPM_P2
2023/09/04 00:00:53;;;;;;;3.90;2.15;;;16.30;99.90;;;15.19;100.00;98667.59;4985397;28;20054;-75
2023/09/04 00:03:22;;;;;;;4.05;2.33;;;16.20;99.90;;;15.11;100.00;98671.47;4985790;28;20627;-73
2023/09/04 00:05:49;;;;;;;3.33;2.20;;;16.10;99.90;;;15.03;100.00;98666.56;4984723;28;20053;-73
2023/09/04 00:08:16;;;;;;;5.25;3.20;;;16.00;99.90;;;14.92;100.00;98677.47;4984551;28;20051;-73
2023/09/04 00:10:44;;;;;;;4.75;2.53;;;15.90;99.90;;;14.96;100.00;98680.81;4984538;28;20561;-73
2023/09/04 00:13:16;;;;;;;7.13;3.05;;;15.90;99.90;;;14.91;100.00;98677.53;4987401;28;20054;-73
2023/09/04 00:15:44;;;;;;;4.50;2.50;;;15.80;99.90;;;14.78;100.00;98675.47;4980081;28;20098;-73
2023/09/04 00:18:12;;;;;;;5.85;2.95;;;15.70;99.90;;;14.75;100.00;98672.94;4982617;28;20133;-73
2023/09/04 00:20:40;;;;;;;4.50;2.60;;;15.70;99.90;;;14.69;100.00;98667.13;4981244;28;20051;-73
2023/09/04 00:23:07;;;;;;;4.65;2.17;;;15.70;99.90;;;14.75;100.00;98670.34;4983918;28;20065;-73
2023/09/04 00:25:34;;;;;;;6.22;2.90;;;15.70;99.90;;;14.66;100.00;98667.28;4986418;28;20078;-73
2023/09/04 00:28:06;;;;;;;6.63;3.35;;;15.70;99.90;;;14.75;100.00;98666.88;4988545;28;20157;-73
2023/09/04 00:30:33;;;;;;;6.30;3.17;;;15.60;99.90;;;14.69;100.00;98660.16;5002114;28;20043;-74
2023/09/04 00:33:01;;;;;;;9.20;3.03;;;15.60;99.90;;;14.64;100.00;98656.88;4986889;28;20535;-73
2023/09/04 00:35:28;;;;;;;7.70;3.28;;;15.60;99.90;;;14.71;100.00;98654.84;5002441;28;20049;-74
2023/09/04 00:37:58;;;;;;;5.82;3.38;;;15.60;99.90;;;14.59;100.00;98659.69;4999136;28;20085;-73
2023/09/04 00:40:25;;;;;;;4.82;3.20;;;15.60;99.90;;;14.62;100.00;98666.56;4970606;28;20066;-73
2023/09/04 00:42:52;;;;;;;5.82;2.60;;;15.60;99.90;;;14.67;100.00;98669.00;4982899;28;20500;-73
2023/09/04 00:45:19;;;;;;;7.15;3.60;;;15.50;99.90;;;14.58;100.00;98675.44;4983002;28;20054;-74
2023/09/04 00:47:47;;;;;;;6.07;3.78;;;15.60;99.90;;;14.53;100.00;98667.75;4966871;28;20140;-74
2023/09/04 00:50:25;;;;;;;6.22;3.53;;;15.50;99.90;;;14.47;100.00;98661.94;4984634;28;20142;-73
2023/09/04 00:53:02;;;;;;;7.18;3.15;;;15.50;99.90;;;14.41;100.00;98663.91;4970775;28;20072;-73
2023/09/04 00:55:30;;;;;;;6.53;3.22;;;15.40;99.90;;;14.34;100.00;98669.41;4986549;28;20104;-73
2023/09/04 00:57:58;;;;;;;8.98;3.17;;;15.40;99.90;;;14.23;100.00;98673.31;4987975;28;20089;-74
2023/09/04 01:00:27;;;;;;;5.18;3.42;;;15.30;99.90;;;14.23;100.00;98675.94;4983520;28;21966;-73
2023/09/04 01:02:56;;;;;;;10.75;3.85;;;15.30;99.90;;;14.30;100.00;98676.53;4966819;28;20137;-73
2023/09/04 01:05:25;;;;;;;5.95;3.65;;;15.20;99.90;;;14.23;100.00;98682.88;4986063;28;20053;-73
2023/09/04 01:07:52;;;;;;;5.00;2.70;;;15.20;99.90;;;14.17;100.00;98688.38;4987045;28;20094;-73
2023/09/04 01:10:22;;;;;;;5.00;3.53;;;15.20;99.90;;;14.23;100.00;98688.97;4986802;28;20517;-73
2023/09/04 01:13:01;;;;;;;8.88;3.70;;;15.10;99.90;;;14.30;100.00;98683.50;4986383;28;20138;-74
2023/09/04 01:15:30;;;;;;;7.55;3.72;;;15.10;99.90;;;14.33;100.00;98676.41;4984433;28;20105;-73
2023/09/04 01:17:59;;;;;;;6.55;3.67;;;15.10;99.90;;;14.32;100.00;98676.44;4982961;28;20113;-73
2023/09/04 01:20:29;;;;;;;6.90;3.72;;;15.20;99.90;;;14.29;100.00;98672.19;4983675;28;20046;-73
2023/09/04 01:22:57;;;;;;;6.05;3.40;;;15.10;99.90;;;14.21;100.00;98674.28;5000862;28;20182;-73
2023/09/04 01:25:54;;;;;;;7.25;3.85;;;15.10;99.90;;;14.26;100.00;98661.06;5001009;28;20113;-74
2023/09/04 01:28:34;;;;;;;6.72;3.53;;;15.10;99.90;;;14.39;100.00;98650.03;4981226;28;20078;-74
2023/09/04 01:31:11;;;;;;;5.95;4.00;;;15.20;99.90;;;14.50;100.00;98648.75;4998548;28;20077;-73
2023/09/04 01:33:47;;;;;;;4.95;3.38;;;15.20;99.90;;;14.49;100.00;98658.34;5000031;28;20058;-73
2023/09/04 01:36:16;;;;;;;6.38;4.10;;;15.30;99.90;;;14.46;100.00;98649.78;5001239;28;20042;-73
2023/09/04 01:38:47;;;;;;;4.03;2.92;;;15.30;99.90;;;14.57;100.00;98647.59;4985580;28;20129;-73
2023/09/04 01:41:15;;;;;;;7.28;3.25;;;15.30;99.90;;;14.72;100.00;98651.34;4985588;28;20449;-73
2023/09/04 01:43:42;;;;;;;7.20;3.50;;;15.40;99.90;;;14.73;100.00;98648.66;4983331;28;20088;-73
2023/09/04 01:46:09;;;;;;;5.22;3.50;;;15.50;99.90;;;14.73;100.00;98648.66;4984078;28;20876;-73
2023/09/04 01:48:37;;;;;;;5.10;3.03;;;15.50;99.90;;;14.64;100.00;98642.06;4984674;28;20157;-73
2023/09/04 01:51:04;;;;;;;4.88;2.97;;;15.60;99.90;;;14.65;100.00;98642.91;4982154;28;20050;-73
2023/09/04 01:53:31;;;;;;;6.00;3.97;;;15.50;99.90;;;14.61;100.00;98643.94;4984127;28;20507;-73
2023/09/04 01:55:59;;;;;;;6.90;3.67;;;15.50;99.90;;;14.56;100.00;98638.06;4981467;28;20169;-73
2023/09/04 01:58:28;;;;;;;5.32;3.47;;;15.50;99.90;;;14.52;100.00;98629.47;4996122;28;20081;-73
2023/09/04 02:00:58;;;;;;;6.38;3.50;;;15.40;99.90;;;14.37;100.00;98620.53;4983291;28;20125;-73
2023/09/04 02:03:25;;;;;;;5.53;3.00;;;15.40;99.90;;;14.29;100.00;98629.56;4983464;28;20050;-73
2023/09/04 02:05:52;;;;;;;9.93;2.85;;;15.30;99.90;;;14.25;100.00;98626.22;4980999;28;20055;-73
2023/09/04 02:08:20;;;;;;;6.38;4.18;;;15.20;99.90;;;14.21;100.00;98642.97;4985327;28;20142;-73
2023/09/04 02:10:49;;;;;;;5.80;3.60;;;15.10;99.90;;;14.11;100.00;98641.59;4985051;28;20046;-74
2023/09/04 02:13:16;;;;;;;8.05;3.30;;;15.10;99.90;;;14.05;100.00;98642.72;5000782;28;20906;-73
2023/09/04 02:15:43;;;;;;;5.53;3.80;;;15.10;99.90;;;14.09;100.00;98638.22;4984159;28;20133;-73
2023/09/04 02:18:11;;;;;;;7.25;3.28;;;15.00;99.90;;;14.04;100.00;98638.38;4984375;28;20088;-73
2023/09/04 02:20:38;;;;;;;6.35;4.25;;;15.00;99.90;;;13.96;100.00;98635.25;4983854;28;20417;-74
2023/09/04 02:23:05;;;;;;;6.75;3.80;;;14.90;99.90;;;13.98;100.00;98634.28;4980021;28;20513;-73
2023/09/04 02:25:32;;;;;;;11.15;4.00;;;14.90;99.90;;;13.98;100.00;98630.78;4985246;28;20054;-74
2023/09/04 02:28:02;;;;;;;5.10;3.60;;;14.90;99.90;;;13.95;100.00;98623.09;4981531;28;20130;-73
2023/09/04 02:30:30;;;;;;;5.80;4.05;;;14.90;99.90;;;14.03;100.00;98610.59;4999860;28;20046;-73
2023/09/04 02:33:00;;;;;;;5.32;3.45;;;14.90;99.90;;;13.95;100.00;98623.09;4985755;28;20097;-73
2023/09/04 02:35:27;;;;;;;6.40;3.38;;;14.80;99.90;;;13.92;100.00;98620.63;4984362;28;20074;-73
2023/09/04 02:37:54;;;;;;;6.35;3.22;;;14.80;99.90;;;13.93;100.00;98624.91;4981798;28;20575;-74
2023/09/04 02:40:21;;;;;;;6.47;4.28;;;14.80;99.90;;;13.92;100.00;98631.06;4996501;28;20055;-74
2023/09/04 02:42:49;;;;;;;7.00;4.13;;;14.80;99.90;;;13.92;100.00;98629.28;4984688;28;20053;-73
2023/09/04 02:45:16;;;;;;;6.28;3.17;;;14.80;99.90;;;13.88;100.00;98626.84;4982728;28;20855;-74
2023/09/04 02:47:43;;;;;;;6.45;3.63;;;14.80;99.90;;;13.94;100.00;98624.88;4982248;28;20043;-73
2023/09/04 02:50:11;;;;;;;6.30;3.90;;;14.80;99.90;;;13.80;100.00;98622.78;4982712;28;20046;-74
2023/09/04 02:52:38;;;;;;;5.47;3.53;;;14.70;99.90;;;13.70;100.00;98618.81;4967202;28;20061;-73
2023/09/04 02:55:06;;;;;;;5.05;3.47;;;14.70;99.90;;;13.55;100.00;98622.03;4966618;28;20108;-74
2023/09/04 02:57:33;;;;;;;5.45;3.42;;;14.60;99.90;;;13.54;100.00;98613.34;4982966;28;20077;-73
2023/09/04 03:00:06;;;;;;;7.05;4.45;;;14.60;99.90;;;13.45;100.00;98616.31;4983433;28;20109;-73
2023/09/04 03:02:34;;;;;;;7.35;3.45;;;14.50;99.90;;;13.36;100.00;98606.22;4982247;28;20515;-73
2023/09/04 03:05:02;;;;;;;6.63;3.58;;;14.40;99.90;;;13.45;100.00;98612.84;4983057;28;20065;-73
2023/09/04 03:07:30;;;;;;;6.72;4.32;;;14.40;99.90;;;13.47;100.00;98604.06;4984657;28;20085;-74
2023/09/04 03:09:59;;;;;;;4.72;3.25;;;14.30;99.90;;;13.31;100.00;98603.78;4980999;28;20537;-73
2023/09/04 03:12:30;;;;;;;5.90;3.85;;;14.30;99.90;;;13.24;100.00;98604.03;4968435;28;20423;-74
2023/09/04 03:15:03;;;;;;;7.88;4.93;;;14.20;99.90;;;13.20;100.00;98603.28;4982403;28;20050;-73
2023/09/04 03:17:32;;;;;;;8.32;4.15;;;14.20;99.90;;;13.09;100.00;98600.22;4983481;28;20054;-73
2023/09/04 03:20:00;;;;;;;9.05;4.90;;;14.10;99.90;;;13.20;100.00;98598.06;4984273;28;20050;-74
2023/09/04 03:22:27;;;;;;;6.90;4.30;;;14.00;99.90;;;13.15;100.00;98600.00;4982902;28;20057;-73
2023/09/04 03:24:54;;;;;;;8.10;4.53;;;14.10;99.90;;;13.26;100.00;98599.63;4983552;28;20051;-73
2023/09/04 03:27:21;;;;;;;7.95;5.38;;;14.00;99.90;;;13.25;100.00;98593.56;4985393;28;20579;-73
2023/09/04 03:29:49;;;;;;;9.07;4.10;;;14.10;99.90;;;13.19;100.00;98594.63;4984449;28;20069;-73
2023/09/04 03:32:16;;;;;;;7.25;5.10;;;14.10;99.90;;;13.09;100.00;98589.81;4986510;28;20157;-73
2023/09/04 03:34:46;;;;;;;7.15;4.38;;;14.00;99.90;;;13.15;100.00;98598.25;4986148;28;20054;-73
2023/09/04 03:37:13;;;;;;;9.45;5.00;;;14.00;99.90;;;13.26;100.00;98603.06;4989380;28;20341;-73
2023/09/04 03:39:40;;;;;;;8.48;5.07;;;14.00;99.90;;;13.14;100.00;98596.56;4986014;28;20100;-74
2023/09/04 03:42:07;;;;;;;9.48;5.07;;;14.00;99.90;;;13.15;100.00;98598.25;4988221;28;20058;-73
2023/09/04 03:44:35;;;;;;;11.85;4.20;;;14.00;99.90;;;13.24;100.00;98604.03;4972642;28;20559;-73
2023/09/04 03:47:03;;;;;;;8.13;5.45;;;14.00;99.90;;;13.24;100.00;98612.72;4989058;28;20503;-73
2023/09/04 03:49:30;;;;;;;10.20;5.05;;;14.00;99.90;;;13.17;100.00;98606.88;4986833;28;20051;-73
2023/09/04 03:51:57;;;;;;;11.38;6.30;;;14.10;99.90;;;13.25;100.00;98614.44;4986857;28;20128;-75
2023/09/04 03:54:24;;;;;;;8.63;5.10;;;14.10;99.90;;;13.20;100.00;98605.91;4985677;28;20055;-75
2023/09/04 03:56:51;;;;;;;9.68;5.40;;;14.10;99.90;;;13.18;100.00;98612.94;4986288;28;20108;-75
2023/09/04 03:59:20;;;;;;;11.80;6.65;;;14.10;99.90;;;13.17;100.00;98613.84;4984749;28;20157;-75
2023/09/04 04:01:47;;;;;;;11.95;6.43;;;14.10;99.90;;;13.18;100.00;98611.19;4989653;28;20169;-73
2023/09/04 04:04:14;;;;;;;12.48;5.68;;;14.00;99.90;;;13.15;100.00;98607.84;4987430;28;20113;-73
2023/09/04 04:06:45;;;;;;;9.45;6.45;;;14.00;99.90;;;13.11;100.00;98601.03;4987554;28;20104;-73
2023/09/04 04:09:14;;;;;;;13.07;6.40;;;14.00;99.90;;;13.12;100.00;98598.38;4985240;28;20097;-74
2023/09/04 04:11:41;;;;;;;8.77;5.90;;;14.00;99.90;;;13.15;100.00;98590.44;4986005;28;20950;-73
2023/09/04 04:14:09;;;;;;;8.95;6.50;;;14.00;99.90;;;13.13;100.00;98594.00;4987826;28;20096;-73
2023/09/04 04:16:36;;;;;;;11.27;6.18;;;14.00;99.90;;;13.15;100.00;98592.19;4987686;28;20086;-73
2023/09/04 04:19:04;;;;;;;9.43;6.53;;;13.90;99.90;;;13.12;100.00;98592.31;4989441;28;20125;-73
2023/09/04 04:21:31;;;;;;;12.63;6.95;;;13.90;99.90;;;13.13;100.00;98592.25;4985579;28;20070;-73
2023/09/04 04:23:59;;;;;;;8.55;6.07;;;13.90;99.90;;;13.14;100.00;98586.13;4985335;28;20069;-73
2023/09/04 04:26:29;;;;;;;12.57;6.07;;;14.00;99.90;;;13.10;100.00;98584.53;4985493;28;20082;-75
2023/09/04 04:28:56;;;;;;;9.30;6.18;;;14.00;99.90;;;13.09;100.00;98587.19;4985130;28;20165;-74
2023/09/04 04:31:23;;;;;;;9.00;6.00;;;13.90;99.90;;;13.15;100.00;98586.97;5001601;28;20503;-74
2023/09/04 04:33:51;;;;;;;12.77;6.68;;;13.90;99.90;;;13.21;100.00;98584.16;4979592;28;20491;-75
2023/09/04 04:36:18;;;;;;;9.50;5.30;;;14.00;99.90;;;13.17;100.00;98586.00;4986405;28;20150;-74
2023/09/04 04:38:45;;;;;;;9.75;6.60;;;14.00;99.90;;;13.13;100.00;98589.63;4982756;28;20045;-74
2023/09/04 04:41:13;;;;;;;12.80;6.72;;;14.00;99.90;;;13.17;100.00;98586.00;4981988;28;20050;-74
2023/09/04 04:43:40;;;;;;;9.98;6.85;;;14.00;99.90;;;13.16;100.00;98579.13;4985438;28;20061;-74
2023/09/04 04:46:12;;;;;;;12.75;7.32;;;14.00;99.90;;;13.15;100.00;98580.00;4983567;28;21827;-75
2023/09/04 04:48:40;;;;;;;9.15;6.25;;;13.90;99.90;;;13.12;100.00;98574.06;4985512;28;20134;-76
2023/09/04 04:51:07;;;;;;;11.38;6.13;;;13.90;99.90;;;13.08;100.00;98575.94;4981543;28;20177;-76
2023/09/04 04:53:37;;;;;;;9.20;6.00;;;13.90;99.90;;;13.02;100.00;98570.09;4983548;28;20049;-76
2023/09/04 04:56:05;;;;;;;11.98;6.40;;;13.80;99.90;;;13.02;100.00;98562.25;4982589;28;20412;-77
2023/09/04 04:58:32;;;;;;;10.95;6.30;;;13.80;99.90;;;13.05;100.00;98570.00;4982869;28;20625;-75
2023/09/04 05:00:59;;;;;;;12.13;6.22;;;13.80;99.90;;;13.14;100.00;98572.25;4998864;28;20109;-75
2023/09/04 05:03:26;;;;;;;11.60;6.50;;;13.90;99.90;;;13.22;100.00;98559.78;4985304;28;20050;-75
2023/09/04 05:05:53;;;;;;;10.68;5.93;;;13.90;99.90;;;13.21;100.00;98562.47;4982616;28;20590;-75
2023/09/04 05:08:21;;;;;;;8.98;5.50;;;14.00;99.90;;;13.30;100.00;98567.34;4984132;28;20078;-75
2023/09/04 05:11:02;;;;;;;7.72;4.72;;;14.00;99.90;;;13.31;100.00;98561.22;4984644;28;20598;-75
2023/09/04 05:13:30;;;;;;;7.85;5.50;;;14.00;99.90;;;13.37;100.00;98561.84;4999168;28;20049;-75
2023/09/04 05:16:04;;;;;;;8.63;6.30;;;14.10;99.90;;;13.34;100.00;98558.47;4983595;28;20086;-75
2023/09/04 05:18:33;;;;;;;9.57;6.05;;;14.10;99.90;;;13.25;100.00;98557.06;4984808;28;20186;-75
2023/09/04 05:21:05;;;;;;;7.30;4.82;;;14.10;99.90;;;13.28;100.00;98554.38;4987798;28;20062;-75
2023/09/04 05:23:33;;;;;;;9.75;5.55;;;14.00;99.90;;;13.23;100.00;98558.88;4971628;28;20050;-75
2023/09/04 05:26:01;;;;;;;7.28;5.15;;;14.00;99.90;;;13.32;100.00;98552.47;4985688;28;20055;-75
2023/09/04 05:28:28;;;;;;;9.95;5.28;;;14.00;99.90;;;13.38;100.00;98547.88;4982646;28;20047;-75
2023/09/04 05:31:04;;;;;;;8.70;4.82;;;14.10;99.90;;;13.39;100.00;98552.19;4981507;28;20050;-75
2023/09/04 05:33:31;;;;;;;8.35;5.72;;;14.10;99.90;;;13.41;100.00;98540.84;4999021;28;20046;-75
2023/09/04 05:35:59;;;;;;;6.78;4.50;;;14.10;99.90;;;13.60;100.00;98547.91;4988373;28;20093;-75
2023/09/04 05:38:26;;;;;;;9.77;5.57;;;14.20;99.90;;;13.57;100.00;98540.22;4987811;28;20049;-75
2023/09/04 05:40:55;;;;;;;7.72;4.38;;;14.20;99.90;;;13.51;100.00;98545.66;4985734;28;20054;-75
2023/09/04 05:43:22;;;;;;;9.45;4.03;;;14.30;99.90;;;13.55;100.00;98543.78;4985018;28;20515;-75
2023/09/04 05:45:49;;;;;;;8.70;4.65;;;14.30;99.90;;;13.63;100.00;98543.47;4985531;28;20065;-75
2023/09/04 05:48:20;;;;;;;7.90;4.30;;;14.30;99.90;;;13.66;100.00;98564.22;4986600;28;20080;-75
2023/09/04 05:50:47;;;;;;;9.27;4.75;;;14.40;99.90;;;13.73;100.00;98550.88;4982692;28;20057;-75
2023/09/04 05:53:15;;;;;;;7.30;4.68;;;14.40;99.90;;;13.74;100.00;98557.78;4984642;28;20061;-75
2023/09/04 05:55:43;;;;;;;6.95;4.57;;;14.40;99.90;;;13.64;100.00;98561.69;4985909;28;20046;-75
2023/09/04 05:58:16;;;;;;;11.25;4.18;;;14.40;99.90;;;13.68;100.00;98570.22;4984298;28;20538;-75
2023/09/04 06:00:43;;;;;;;8.82;4.63;;;14.40;99.90;;;13.74;100.00;98549.97;4985779;28;20165;-74
2023/09/04 06:03:10;;;;;;;8.57;5.38;;;14.40;99.90;;;13.78;100.00;98548.94;4985819;28;20423;-75
2023/09/04 06:05:38;;;;;;;8.52;5.03;;;14.50;99.90;;;13.85;100.00;98551.31;4982220;28;20069;-75
2023/09/04 06:08:05;;;;;;;14.45;5.05;;;14.50;99.90;;;14.01;100.00;98557.59;4985855;28;20670;-75
2023/09/04 06:10:32;;;;;;;7.35;4.45;;;14.60;99.90;;;14.21;100.00;98555.03;4983275;28;20105;-75
2023/09/04 06:12:59;;;;;;;6.38;4.43;;;14.70;99.90;;;14.31;100.00;98562.47;4985240;28;20046;-75
2023/09/04 06:15:27;;;;;;;7.07;3.55;;;14.80;99.90;;;14.33;100.00;98561.47;4983084;28;20054;-75
2023/09/04 06:17:54;;;;;;;7.82;4.07;;;14.90;99.90;;;14.48;100.00;98557.34;4984179;28;20128;-75
2023/09/04 06:20:21;;;;;;;8.18;3.72;;;15.00;99.90;;;14.40;100.00;98559.47;4985082;28;20056;-75
2023/09/04 06:22:58;;;;;;;5.90;3.80;;;15.10;99.90;;;14.47;100.00;98550.44;5073737;27;20490;-75
2023/09/04 06:25:25;;;;;;;8.13;4.10;;;15.10;99.90;;;14.55;100.00;98545.78;5061270;28;20128;-75
2023/09/04 06:27:52;;;;;;;6.15;3.83;;;15.20;99.90;;;14.62;100.00;98547.22;5054493;28;20057;-74
2023/09/04 06:30:19;;;;;;;7.38;4.15;;;15.10;99.90;;;14.56;100.00;98547.47;5052714;28;20049;-75
2023/09/04 06:32:46;;;;;;;7.35;4.43;;;15.20;99.90;;;14.60;100.00;98543.81;5058106;28;20476;-75
2023/09/04 06:35:13;;;;;;;7.88;4.00;;;15.20;99.90;;;14.68;100.00;98553.09;5058557;28;20086;-75
2023/09/04 06:37:41;;;;;;;6.57;3.85;;;15.20;99.90;;;14.83;100.00;98555.03;5050757;28;20055;-75
2023/09/04 06:40:08;;;;;;;8.55;4.78;;;15.30;99.90;;;14.77;100.00;98552.69;5053931;28;20505;-75
2023/09/04 06:42:35;;;;;;;8.05;4.38;;;15.40;99.90;;;15.01;100.00;98561.22;5055103;28;20111;-75
2023/09/04 06:45:03;;;;;;;7.95;4.80;;;15.40;99.90;;;15.15;100.00;98552.75;5052545;28;20053;-75
2023/09/04 06:47:30;;;;;;;8.10;4.70;;;15.50;99.90;;;15.30;100.00;98549.41;5050385;28;20107;-75
2023/09/04 06:49:57;;;;;;;6.85;4.50;;;15.70;99.90;;;15.18;100.00;98547.34;5068450;28;20402;-75
2023/09/04 06:52:24;;;;;;;13.52;4.60;;;15.70;99.90;;;15.38;100.00;98541.22;5052130;28;20056;-75
2023/09/04 06:54:51;;;;;;;7.05;4.68;;;15.80;99.90;;;15.56;100.00;98540.34;5065471;28;20084;-75
2023/09/04 06:57:18;;;;;;;7.47;4.53;;;15.90;99.90;;;15.67;100.00;98532.00;5059477;28;20119;-75
2023/09/04 06:59:45;;;;;;;6.03;3.35;;;16.10;99.90;;;15.89;100.00;98532.66;5055154;28;20053;-75
2023/09/04 07:02:12;;;;;;;5.35;4.00;;;16.30;99.90;;;15.85;100.00;98514.56;5059430;28;20044;-75
2023/09/04 07:04:40;;;;;;;8.20;3.80;;;16.40;99.90;;;16.14;100.00;98522.75;5051768;28;20593;-75
2023/09/04 07:07:07;;;;;;;8.65;2.80;;;16.50;99.90;;;16.30;100.00;98519.25;5051301;28;20537;-74
2023/09/04 07:09:34;;;;;;;5.20;3.58;;;16.70;99.90;;;16.43;100.00;98513.41;5058190;28;20127;-75
2023/09/04 07:12:02;;;;;;;4.93;3.67;;;16.90;99.90;;;16.49;100.00;98507.88;5057407;28;20532;-75
2023/09/04 07:14:29;;;;;;;6.28;3.80;;;17.00;99.90;;;16.62;100.00;98506.28;5053119;28;20057;-74
2023/09/04 07:16:56;;;;;;;5.57;4.38;;;17.10;99.90;;;16.63;100.00;98502.75;5061811;28;20102;-74
2023/09/04 07:19:36;;;;;;;7.22;3.85;;;17.20;99.90;;;16.82;100.00;98512.28;5053966;28;20048;-75
2023/09/04 07:22:03;;;;;;;6.75;3.60;;;17.30;99.90;;;16.87;100.00;98503.22;5049261;28;20498;-75
2023/09/04 07:24:30;;;;;;;6.57;3.63;;;17.40;99.90;;;16.92;100.00;98505.59;5040527;28;20060;-75
2023/09/04 07:27:00;;;;;;;5.55;3.95;;;17.50;99.90;;;16.91;100.00;98498.69;5058926;28;20045;-75
2023/09/04 07:29:27;;;;;;;5.53;3.30;;;17.50;99.90;;;17.08;100.00;98495.13;5053059;28;20088;-75
2023/09/04 07:31:55;;;;;;;5.57;3.38;;;17.60;99.90;;;17.18;100.00;98498.97;5049770;28;20509;-75
2023/09/04 07:34:23;;;;;;;4.53;3.20;;;17.70;99.90;;;17.27;100.00;98495.84;5044016;28;20118;-75
2023/09/04 07:36:52;;;;;;;5.32;3.20;;;17.80;99.90;;;17.47;100.00;98494.75;5044648;28;20076;-75
2023/09/04 07:39:19;;;;;;;6.10;3.50;;;17.90;99.90;;;17.70;100.00;98497.84;5039934;28;20088;-75
2023/09/04 07:41:46;;;;;;;5.63;3.40;;;18.10;99.90;;;17.78;100.00;98492.97;5040049;28;20053;-74
2023/09/04 07:44:13;;;;;;;3.97;2.80;;;18.20;99.90;;;17.87;100.00;98494.28;5027619;28;20049;-74
2023/09/04 07:46:40;;;;;;;4.43;3.22;;;18.30;99.90;;;17.92;100.00;98497.47;5029660;28;20107;-75
2023/09/04 07:49:08;;;;;;;7.63;3.28;;;18.50;99.90;;;18.17;100.00;98491.63;5043879;28;20136;-75
2023/09/04 07:51:35;;;;;;;3.88;3.25;;;18.60;99.90;;;18.46;100.00;98486.44;5041226;28;20482;-75
2023/09/04 07:54:04;;;;;;;5.53;3.15;;;18.70;99.90;;;18.64;100.00;98490.56;5039212;28;20063;-75
2023/09/04 07:56:31;;;;;;;5.63;3.70;;;18.90;99.90;;;18.93;100.00;98490.59;5038815;28;20052;-75
2023/09/04 07:59:09;;;;;;;6.40;3.10;;;19.10;99.90;;;19.47;100.00;98500.38;5041025;28;20064;-75
2023/09/04 08:01:36;;;;;;;3.80;2.95;;;19.40;99.90;;;19.83;100.00;98498.00;5036724;28;20049;-75
2023/09/04 08:04:03;;;;;;;3.75;2.85;;;19.60;99.90;;;20.17;100.00;98500.19;5036395;28;20095;-75
2023/09/04 08:06:30;;;;;;;5.90;2.53;;;19.80;99.90;;;21.03;100.00;98487.25;5037380;28;20061;-73
2023/09/04 08:08:57;;;;;;;4.00;2.70;;;20.00;99.90;;;21.26;100.00;98485.59;5035815;28;20551;-74
2023/09/04 08:11:25;;;;;;;5.43;2.33;;;20.30;99.90;;;22.25;100.00;98484.50;5040731;28;20041;-73
2023/09/04 08:13:52;;;;;;;4.57;2.47;;;20.80;99.90;;;22.53;100.00;98488.56;5043255;28;20677;-74
2023/09/04 08:16:19;;;;;;;3.70;2.20;;;21.30;99.90;;;22.51;100.00;98498.41;5041609;28;20488;-74
2023/09/04 08:18:46;;;;;;;2.80;1.92;;;22.00;99.90;;;22.74;100.00;98499.28;5025711;28;20816;-74
2023/09/04 08:21:14;;;;;;;3.47;1.70;;;22.90;99.90;;;23.86;100.00;98493.97;5019594;28;20053;-74
2023/09/04 08:23:41;;;;;;;3.53;1.95;;;23.90;99.90;;;23.76;100.00;98500.00;5037146;28;20049;-74
2023/09/04 08:26:13;;;;;;;5.70;1.70;;;24.90;99.90;;;24.52;100.00;98504.34;5042073;28;20408;-74
2023/09/04 08:28:42;;;;;;;3.30;1.42;;;;;;;24.01;100.00;98505.94;5017781;28;20072;-74
2023/09/04 08:31:10;;;;;;;4.72;1.50;;;26.40;99.90;;;23.99;100.00;98507.88;5034649;28;20053;-74
2023/09/04 08:33:38;;;;;;;2.05;1.30;;;26.70;99.90;;;25.27;100.00;98512.97;5025920;28;20049;-74
2023/09/04 08:36:05;;;;;;;3.83;1.60;;;;;;;25.15;100.00;98521.00;5041462;28;20115;-74
2023/09/04 08:38:32;;;;;;;2.55;1.50;;;27.60;99.90;;;25.18;100.00;98515.47;5035187;28;20041;-74
2023/09/04 08:41:05;;;;;;;4.53;1.10;;;27.90;99.90;;;25.01;100.00;98527.53;5038116;28;20127;-74
2023/09/04 08:43:32;;;;;;;2.80;1.48;;;28.10;99.90;;;25.39;100.00;98522.53;5038231;28;20103;-74
2023/09/04 08:46:02;;;;;;;2.03;1.40;;;28.00;99.90;;;25.96;100.00;98522.78;5022990;28;20053;-74
2023/09/04 08:48:50;;;;;;;1.98;1.20;;;28.20;99.90;;;26.10;100.00;98524.19;5024916;28;20195;-74
2023/09/04 08:51:18;;;;;;;2.78;1.75;;;28.30;99.90;;;26.67;100.00;98520.63;5038575;28;20142;-74
2023/09/04 08:54:04;;;;;;;2.38;1.42;;;28.60;99.90;;;26.55;100.00;98524.44;5033741;28;20521;-74
2023/09/04 08:56:35;;;;;;;2.03;1.30;;;29.00;99.90;;;27.05;100.00;98525.94;5033666;28;20562;-76
2023/09/04 08:59:05;;;;;;;3.05;1.30;;;29.00;99.90;;;27.22;100.00;98524.38;5021427;28;20041;-75
2023/09/04 09:01:33;;;;;;;4.13;1.33;;;29.10;99.90;;;26.79;100.00;98521.28;5036253;28;20049;-74
2023/09/04 09:04:02;;;;;;;2.30;1.23;;;28.90;99.90;;;27.94;100.00;98520.03;5040194;28;20551;-75
2023/09/04 09:06:30;;;;;;;3.63;1.20;;;29.30;99.90;;;27.42;100.00;98519.78;5036147;28;20100;-75
2023/09/04 09:08:59;;;;;;;4.40;1.30;;;29.60;99.90;;;26.74;100.00;98520.03;5042497;28;20090;-74
2023/09/04 09:11:27;;;;;;;2.00;1.08;;;29.50;98.50;;;25.75;100.00;98536.16;5026758;28;20045;-75
2023/09/04 09:13:54;;;;;;;1.60;0.98;;;29.00;97.90;;;26.24;100.00;98527.25;5039545;28;20048;-76
2023/09/04 09:16:24;;;;;;;1.77;1.33;;;28.60;98.60;;;25.90;100.00;98512.69;5021394;28;20120;-76
2023/09/04 09:18:54;;;;;;;3.38;1.20;;;28.50;98.20;;;26.54;100.00;98508.56;5039046;28;20041;-75
2023/09/04 09:21:34;;;;;;;2.88;1.20;;;28.30;97.90;;;26.99;100.00;98521.22;5037090;28;20046;-75
2023/09/04 09:24:17;;;;;;;1.65;1.00;;;28.50;99.00;;;26.74;100.00;98506.72;5037004;28;20049;-75
2023/09/04 09:26:50;;;;;;;1.80;1.15;;;28.80;97.30;;;27.96;100.00;98502.00;5033769;28;20041;-75
2023/09/04 09:29:18;;;;;;;2.20;1.17;;;28.80;98.20;;;26.56;100.00;98498.66;5039613;28;20048;-75
2023/09/04 09:31:46;;;;;;;2.05;1.23;;;28.90;96.30;;;26.96;100.00;98495.72;5038713;28;20631;-75
2023/09/04 09:34:14;;;;;;;1.88;1.00;;;28.90;96.50;;;27.48;100.00;98485.38;5040582;28;20148;-75
2023/09/04 09:36:42;;;;;;;3.38;1.50;;;28.90;95.80;;;27.47;100.00;98491.66;5035167;28;20100;-75
2023/09/04 09:39:09;;;;;;;3.35;1.40;;;29.10;97.00;;;28.10;100.00;98490.81;5035996;28;20110;-75
2023/09/04 09:41:36;;;;;;;2.13;1.10;;;29.20;97.40;;;28.43;100.00;98501.72;5036474;28;20047;-74
2023/09/04 09:44:04;;;;;;;1.73;1.00;;;29.50;96.90;;;28.73;100.00;98495.09;5033153;28;20049;-75
2023/09/04 09:46:36;;;;;;;2.92;1.05;;;30.00;95.60;;;29.68;100.00;98489.66;5039395;28;20516;-76
2023/09/04 09:49:06;;;;;;;1.45;0.88;;;30.50;95.50;;;30.76;100.00;98477.91;5041247;28;20132;-76
2023/09/04 09:51:37;;;;;;;1.55;0.98;;;31.10;95.00;;;30.61;100.00;98470.56;5026881;28;20103;-76
2023/09/04 09:54:05;;;;;;;2.88;1.25;;;31.50;93.80;;;29.38;100.00;98481.19;5035125;28;20485;-75
2023/09/04 09:56:33;;;;;;;1.73;1.00;;;31.10;92.80;;;29.85;100.00;98470.94;5040921;28;20127;-75
2023/09/04 09:59:02;;;;;;;2.33;1.00;;;31.10;93.50;;;29.64;100.00;98476.75;5040661;28;20057;-75
2023/09/04 10:01:31;;;;;;;2.95;1.10;;;31.10;93.30;;;29.23;100.00;98477.47;5040485;28;20060;-75
2023/09/04 10:04:00;;;;;;;3.38;1.30;;;30.90;92.60;;;28.64;100.00;98476.50;5024018;28;20143;-75
2023/09/04 10:06:34;;;;;;;2.03;1.20;;;30.70;92.50;;;28.01;100.00;98477.53;5036754;28;20117;-75
2023/09/04 10:09:03;;;;;;;2.10;1.10;;;30.20;92.20;;;28.44;100.00;98478.50;5037029;28;20053;-74
2023/09/04 10:11:35;;;;;;;1.67;1.00;;;30.10;92.40;;;28.80;100.00;98476.59;5040040;28;20220;-74
2023/09/04 10:14:18;;;;;;;1.50;0.90;;;30.00;91.30;;;29.93;100.00;98466.44;5035785;28;20158;-74
2023/09/04 10:16:56;;;;;;;4.68;1.00;;;30.10;91.80;;;28.73;100.00;98472.88;5038398;28;20118;-75
2023/09/04 10:19:31;;;;;;;1.88;1.10;;;30.00;90.70;;;28.57;100.00;98460.28;5021013;28;20129;-74